createdAt,value
2023-04-17T00:02:19.954Z,101793.50
2023-04-17T00:04:47.380Z,101800.91
2023-04-17T00:07:14.690Z,101805.03
2023-04-17T00:09:41.842Z,101793.72
2023-04-17T00:12:09.423Z,101796.38
2023-04-17T00:14:36.586Z,101792.47
2023-04-17T00:17:03.748Z,101802.56
2023-04-17T00:19:30.881Z,101797.59
2023-04-17T00:21:57.919Z,101796.16
2023-04-17T00:24:24.907Z,101803.16
2023-04-17T00:26:51.910Z,101800.88
2023-04-17T00:29:19.205Z,101795.13
2023-04-17T00:31:46.187Z,101807.28
2023-04-17T00:34:13.257Z,101805.03
2023-04-17T00:36:40.692Z,101798.03
2023-04-17T00:39:08.067Z,101796.38
2023-04-17T00:41:35.318Z,101803.38
2023-04-17T00:44:02.544Z,101802.97
2023-04-17T00:46:30.025Z,101808.72
2023-04-17T00:48:56.909Z,101805.44
2023-04-17T00:51:24.040Z,101800.09
2023-04-17T00:53:51.570Z,101809.75
2023-04-17T00:56:18.919Z,101812.66
2023-04-17T00:58:46.719Z,101806.28
2023-04-17T01:01:13.939Z,101816.56
2023-04-17T01:03:41.569Z,101814.94
2023-04-17T01:06:09.239Z,101812.84
2023-04-17T01:08:45.919Z,101806.28
2023-04-17T01:11:13.065Z,101814.31
2023-04-17T01:13:51.429Z,101796.22
2023-04-17T01:16:19.756Z,101807.13
2023-04-17T01:18:48.381Z,101807.75
2023-04-17T01:21:15.973Z,101814.94
2023-04-17T01:23:53.333Z,101806.50
2023-04-17T01:26:23.854Z,101808.59
2023-04-17T01:28:58.730Z,101804.88
2023-04-17T01:31:30.398Z,101806.94
2023-04-17T01:33:57.491Z,101799.50
2023-04-17T01:36:24.487Z,101800.53
2023-04-17T01:38:52.146Z,101800.13
2023-04-17T01:41:19.206Z,101805.69
2023-04-17T01:43:47.690Z,101796.22
2023-04-17T01:46:15.120Z,101811.44
2023-04-17T01:48:42.239Z,101800.97
2023-04-17T01:51:09.315Z,101803.63
2023-04-17T01:53:37.809Z,101800.75
2023-04-17T01:56:04.872Z,101805.47
2023-04-17T01:58:31.843Z,101802.19
2023-04-17T02:01:00.471Z,101806.31
2023-04-17T02:03:28.133Z,101812.06
2023-04-17T02:05:55.605Z,101805.28
2023-04-17T02:08:22.669Z,101815.59
2023-04-17T02:10:49.958Z,101815.19
2023-04-17T02:13:16.987Z,101809.03
2023-04-17T02:15:44.057Z,101821.78
2023-04-17T02:18:11.492Z,101810.69
2023-04-17T02:20:39.404Z,101826.31
2023-04-17T02:23:07.067Z,101824.69
2023-04-17T02:25:34.808Z,101828.59
2023-04-17T02:28:03.818Z,101820.75
2023-04-17T02:30:30.968Z,101837.41
2023-04-17T02:32:59.007Z,101827.94
2023-04-17T02:35:28.507Z,101832.03
2023-04-17T02:37:57.490Z,101828.75
2023-04-17T02:40:24.575Z,101828.34
2023-04-17T02:42:56.806Z,101826.88
2023-04-17T02:45:23.960Z,101836.75
2023-04-17T02:47:51.167Z,101832.19
2023-04-17T02:50:18.648Z,101837.94
2023-04-17T02:53:08.865Z,101835.84
2023-04-17T02:55:36.233Z,101835.66
2023-04-17T02:58:03.353Z,101833.75
2023-04-17T03:00:30.333Z,101840.28
2023-04-17T03:02:57.497Z,101846.22
2023-04-17T03:05:24.652Z,101842.50
2023-04-17T03:07:53.845Z,101839.78
2023-04-17T03:10:21.097Z,101845.91
2023-04-17T03:12:48.970Z,101847.53
2023-04-17T03:15:16.239Z,101853.69
2023-04-17T03:17:43.702Z,101847.09
2023-04-17T03:20:11.351Z,101856.13
2023-04-17T03:22:38.448Z,101850.56
2023-04-17T03:25:07.250Z,101854.44
2023-04-17T03:27:44.631Z,101858.91
2023-04-17T03:30:12.871Z,101861.59
2023-04-17T03:32:42.721Z,101860.97
2023-04-17T03:35:09.744Z,101861.75
2023-04-17T03:37:36.608Z,101868.72
2023-04-17T03:40:05.996Z,101870.13
2023-04-17T03:42:33.182Z,101876.50
2023-04-17T03:45:00.215Z,101869.91
2023-04-17T03:47:29.407Z,101869.28
2023-04-17T03:49:57.313Z,101875.44
2023-04-17T03:52:25.455Z,101873.97
2023-04-17T03:54:56.838Z,101876.00
2023-04-17T03:57:25.523Z,101875.19
2023-04-17T03:59:53.312Z,101880.53
2023-04-17T04:02:20.855Z,101877.41
2023-04-17T04:04:50.484Z,101878.44
2023-04-17T04:07:17.851Z,101881.28
2023-04-17T04:09:45.373Z,101893.41
2023-04-17T04:12:12.699Z,101903.25
2023-04-17T04:14:42.622Z,101891.56
2023-04-17T04:17:10.916Z,101906.75
2023-04-17T04:19:39.578Z,101906.38
2023-04-17T04:22:07.817Z,101908.00
2023-04-17T04:24:42.715Z,101900.63
2023-04-17T04:27:12.067Z,101907.63
2023-04-17T04:29:39.240Z,101915.44
2023-04-17T04:32:09.700Z,101897.59
2023-04-17T04:34:44.827Z,101907.66
2023-04-17T04:37:15.630Z,101905.81
2023-04-17T04:39:44.605Z,101905.44
2023-04-17T04:42:22.411Z,101898.44
2023-04-17T04:45:08.616Z,101900.50
2023-04-17T04:47:36.334Z,101903.78
2023-04-17T04:50:03.704Z,101916.72
2023-04-17T04:52:31.556Z,101910.78
2023-04-17T04:55:02.739Z,101918.56
2023-04-17T04:57:31.797Z,101916.34
2023-04-17T05:00:01.657Z,101908.09
2023-04-17T05:02:34.206Z,101926.81
2023-04-17T05:05:02.253Z,101915.53
2023-04-17T05:07:32.516Z,101928.06
2023-04-17T05:10:00.813Z,101926.66
2023-04-17T05:12:33.046Z,101917.66
2023-04-17T05:15:00.150Z,101933.88
2023-04-17T05:17:34.662Z,101935.97
2023-04-17T05:20:07.441Z,101930.44
2023-04-17T05:22:38.821Z,101939.31
2023-04-17T05:25:11.909Z,101943.22
2023-04-17T05:27:39.788Z,101943.66
2023-04-17T05:30:08.366Z,101950.91
2023-04-17T05:32:36.694Z,101944.56
2023-04-17T05:35:24.335Z,101945.03
2023-04-17T05:37:52.275Z,101951.41
2023-04-17T05:40:19.796Z,101952.09
2023-04-17T05:42:46.850Z,101950.28
2023-04-17T05:45:16.137Z,101952.59
2023-04-17T05:47:43.330Z,101956.31
2023-04-17T05:50:11.196Z,101972.16
2023-04-17T05:52:39.429Z,101976.91
2023-04-17T05:55:09.591Z,101967.47
2023-04-17T05:57:38.056Z,101960.50
2023-04-17T06:00:11.399Z,101959.06
2023-04-17T06:02:43.236Z,101959.06
2023-04-17T06:05:16.617Z,101969.16
2023-04-17T06:07:45.404Z,101959.91
2023-04-17T06:10:12.837Z,101972.47
2023-04-17T06:12:40.096Z,101966.31
2023-04-17T06:15:11.736Z,101962.41
2023-04-17T06:17:39.768Z,101974.19
2023-04-17T06:20:11.927Z,101978.53
2023-04-17T06:22:40.681Z,101978.75
2023-04-17T06:25:08.594Z,101986.16
2023-04-17T06:27:37.244Z,101979.38
2023-04-17T06:30:06.755Z,101976.50
2023-04-17T06:32:43.855Z,101989.88
2023-04-17T06:35:11.496Z,101978.16
2023-04-17T06:37:44.317Z,101996.66
2023-04-17T06:40:15.150Z,101989.88
2023-04-17T06:42:42.159Z,101986.16
2023-04-17T06:45:13.279Z,101987.41
2023-04-17T06:47:42.380Z,101994.19
2023-04-17T06:50:10.089Z,101988.84
2023-04-17T06:52:36.993Z,102005.75
2023-04-17T06:55:05.040Z,102001.63
2023-04-17T06:57:34.370Z,101998.16
2023-04-17T07:00:02.761Z,102010.50
2023-04-17T07:02:30.898Z,102015.84
2023-04-17T07:04:58.213Z,102016.06
2023-04-17T07:07:26.954Z,102022.63
2023-04-17T07:09:53.931Z,102017.28
2023-04-17T07:12:22.581Z,102022.84
2023-04-17T07:14:51.336Z,102012.13
2023-04-17T07:17:18.808Z,102021.19
2023-04-17T07:19:45.945Z,102019.78
2023-04-17T07:22:13.023Z,102023.91
2023-04-17T07:24:40.066Z,102018.75
2023-04-17T07:27:07.326Z,102026.56
2023-04-17T07:29:35.493Z,102020.78
2023-04-17T07:32:04.224Z,102032.94
2023-04-17T07:34:34.629Z,102023.84
2023-04-17T07:37:01.968Z,102023.03
2023-04-17T07:39:31.594Z,102036.81
2023-04-17T07:41:58.855Z,102038.84
2023-04-17T07:44:25.931Z,102042.53
2023-04-17T07:46:52.932Z,102040.03
2023-04-17T07:49:19.992Z,102043.53
2023-04-17T07:51:47.094Z,102047.41
2023-04-17T07:54:14.136Z,102044.25
2023-04-17T07:56:41.073Z,102046.25
2023-04-17T07:59:08.310Z,102049.28
2023-04-17T08:01:35.792Z,102044.06
2023-04-17T08:04:03.433Z,102031.84
2023-04-17T08:06:31.242Z,102046.19
2023-04-17T08:09:00.218Z,102045.72
2023-04-17T08:11:27.577Z,102057.00
2023-04-17T08:13:55.977Z,102057.94
2023-04-17T08:16:23.153Z,102056.41
2023-04-17T08:18:50.541Z,102059.88
2023-04-17T08:21:18.017Z,102064.19
2023-04-17T08:23:44.931Z,102062.31
2023-04-17T08:26:12.128Z,102065.38
2023-04-17T08:28:39.378Z,102069.72
2023-04-17T08:31:08.518Z,102063.94
2023-04-17T08:33:36.048Z,102072.13
2023-04-17T08:36:09.568Z,102080.28
2023-04-17T08:38:37.253Z,102073.97
2023-04-17T08:41:08.633Z,102069.66
2023-04-17T08:43:36.414Z,102072.19
2023-04-17T08:46:03.973Z,102079.38
2023-04-17T08:48:31.529Z,102071.81
2023-04-17T08:50:58.817Z,102073.28
2023-04-17T08:53:26.017Z,102076.03
2023-04-17T08:55:52.870Z,102077.22
2023-04-17T08:58:22.027Z,102071.72
2023-04-17T09:00:49.357Z,102076.34
2023-04-17T09:03:16.692Z,102077.53
2023-04-17T09:05:46.355Z,102073.78
2023-04-17T09:08:26.194Z,102083.72
2023-04-17T09:10:54.988Z,102087.94
2023-04-17T09:13:29.333Z,102076.13
2023-04-17T09:16:06.287Z,102078.13
2023-04-17T09:18:35.466Z,102081.41
2023-04-17T09:21:04.849Z,102083.88
2023-04-17T09:23:56.338Z,102083.63
2023-04-17T09:26:26.822Z,102074.84
2023-04-17T09:29:12.326Z,102084.22
2023-04-17T09:31:42.949Z,102084.41
2023-04-17T09:34:13.002Z,102080.34
2023-04-17T09:36:43.190Z,102083.59
2023-04-17T09:39:24.226Z,102081.38
2023-04-17T09:42:04.492Z,102082.16
2023-04-17T09:44:32.319Z,102084.72
2023-04-17T09:47:01.785Z,102077.50
2023-04-17T09:49:49.427Z,102081.72
2023-04-17T09:52:17.103Z,102081.16
2023-04-17T09:54:45.521Z,102079.19
2023-04-17T09:57:13.205Z,102081.06
2023-04-17T09:59:42.037Z,102081.53
2023-04-17T10:02:11.453Z,102087.94
2023-04-17T10:04:43.540Z,102081.09
2023-04-17T10:07:13.380Z,102076.25
2023-04-17T10:09:42.295Z,102083.44
2023-04-17T10:12:18.743Z,102080.72
2023-04-17T10:14:50.350Z,102081.09
2023-04-17T10:17:32.638Z,102081.88
2023-04-17T10:20:18.450Z,102077.22
2023-04-17T10:22:56.472Z,102076.50
2023-04-17T10:25:28.326Z,102073.81
2023-04-17T10:28:00.978Z,102068.53
2023-04-17T10:30:54.948Z,102061.16
2023-04-17T10:33:25.518Z,102061.53
2023-04-17T10:35:53.825Z,102061.19
2023-04-17T10:38:35.714Z,102050.34
2023-04-17T10:41:08.880Z,102047.78
2023-04-17T10:43:40.576Z,102046.25
2023-04-17T10:46:13.073Z,102034.28
2023-04-17T10:48:52.588Z,102038.38
2023-04-17T10:51:27.116Z,102033.53
2023-04-17T10:53:58.352Z,102042.69
2023-04-17T10:56:31.478Z,102044.69
2023-04-17T10:59:03.325Z,102039.25
2023-04-17T11:01:53.606Z,102044.72
2023-04-17T11:04:36.344Z,102043.06
2023-04-17T11:07:03.714Z,102045.00
2023-04-17T11:09:30.873Z,102046.16
2023-04-17T11:12:02.262Z,102056.75
2023-04-17T11:14:30.381Z,102058.59
2023-04-17T11:16:57.641Z,102057.66
2023-04-17T11:19:26.521Z,102058.59
2023-04-17T11:22:01.439Z,102067.94
2023-04-17T11:24:30.993Z,102076.59
2023-04-17T11:27:00.220Z,102061.56
2023-04-17T11:29:28.030Z,102078.06
2023-04-17T11:31:57.163Z,102074.53
2023-04-17T11:34:27.399Z,102074.81
2023-04-17T11:36:59.883Z,102074.84
2023-04-17T11:39:31.500Z,102081.88
2023-04-17T11:41:58.749Z,102085.38
2023-04-17T11:44:26.631Z,102083.72
2023-04-17T11:47:01.366Z,102091.75
2023-04-17T11:49:39.444Z,102103.69
2023-04-17T11:52:06.699Z,102100.25
2023-04-17T11:54:38.464Z,102105.00
2023-04-17T11:57:14.157Z,102094.34
2023-04-17T11:59:42.799Z,102100.63
2023-04-17T12:02:10.517Z,102103.16
2023-04-17T12:04:40.130Z,102107.78
2023-04-17T12:07:08.974Z,102108.63
2023-04-17T12:09:36.889Z,102106.28
2023-04-17T12:12:06.944Z,102105.25
2023-04-17T12:14:34.046Z,102082.03
2023-04-17T12:17:01.475Z,102093.78
2023-04-17T12:19:29.482Z,102111.97
2023-04-17T12:21:57.617Z,102103.19
2023-04-17T12:24:25.357Z,102121.59
2023-04-17T12:26:53.261Z,102113.97
2023-04-17T12:29:32.225Z,102114.41
2023-04-17T12:32:08.280Z,102123.59
2023-04-17T12:34:35.750Z,102117.81
2023-04-17T12:37:02.861Z,102121.97
2023-04-17T12:39:30.182Z,102123.56
2023-04-17T12:41:57.107Z,102130.88
2023-04-17T12:44:24.132Z,102120.50
2023-04-17T12:46:51.113Z,102133.19
2023-04-17T12:49:18.601Z,102116.94
2023-04-17T12:51:45.647Z,102125.25
2023-04-17T12:54:13.333Z,102128.75
2023-04-17T12:56:40.923Z,102121.66
2023-04-17T12:59:08.313Z,102131.97
2023-04-17T13:01:35.349Z,102136.16
2023-04-17T13:04:02.701Z,102132.50
2023-04-17T13:06:29.853Z,102140.72
2023-04-17T13:08:56.833Z,102134.28
2023-04-17T13:11:23.898Z,102135.09
2023-04-17T13:13:50.973Z,102137.66
2023-04-17T13:16:18.169Z,102136.69
2023-04-17T13:18:45.232Z,102135.94
2023-04-17T13:21:12.375Z,102130.25
2023-04-17T13:23:39.491Z,102143.94
2023-04-17T13:26:06.427Z,102145.78
2023-04-17T13:28:33.514Z,102140.41
2023-04-17T13:31:00.730Z,102126.53
2023-04-17T13:33:27.724Z,102139.16
2023-04-17T13:35:54.814Z,102143.09
2023-04-17T13:38:22.105Z,102135.72
2023-04-17T13:40:49.346Z,102141.91
2023-04-17T13:43:17.173Z,102143.41
2023-04-17T13:45:44.284Z,102138.31
2023-04-17T13:48:11.560Z,102137.34
2023-04-17T13:50:39.535Z,102124.00
2023-04-17T13:53:07.051Z,102127.47
2023-04-17T13:55:35.329Z,102142.25
2023-04-17T13:58:02.513Z,102142.88
2023-04-17T14:00:30.143Z,102141.81
2023-04-17T14:02:57.365Z,102133.59
2023-04-17T14:05:24.383Z,102134.03
2023-04-17T14:07:51.343Z,102132.00
2023-04-17T14:10:18.360Z,102138.66
2023-04-17T14:12:45.505Z,102136.47
2023-04-17T14:15:13.193Z,102139.00
2023-04-17T14:17:43.061Z,102140.44
2023-04-17T14:20:12.031Z,102145.00
2023-04-17T14:22:39.603Z,102131.19
2023-04-17T14:25:07.106Z,102134.09
2023-04-17T14:27:36.394Z,102146.94
2023-04-17T14:30:04.252Z,102147.81
2023-04-17T14:32:31.523Z,102138.75
2023-04-17T14:34:59.375Z,102149.72
2023-04-17T14:37:26.977Z,102144.78
2023-04-17T14:39:53.988Z,102146.44
2023-04-17T14:42:20.964Z,102136.56
2023-04-17T14:44:48.184Z,102149.56
2023-04-17T14:47:15.245Z,102146.66
2023-04-17T14:49:42.447Z,102146.72
2023-04-17T14:52:09.349Z,102148.13
2023-04-17T14:54:36.376Z,102159.28
2023-04-17T14:57:03.461Z,102150.63
2023-04-17T14:59:31.028Z,102153.09
2023-04-17T15:01:58.337Z,102145.25
2023-04-17T15:04:26.139Z,102142.75
2023-04-17T15:06:53.142Z,102148.50
2023-04-17T15:09:20.271Z,102157.56
2023-04-17T15:11:47.612Z,102144.28
2023-04-17T15:14:14.611Z,102152.91
2023-04-17T15:16:41.932Z,102132.59
2023-04-17T15:19:09.464Z,102137.16
2023-04-17T15:21:36.505Z,102124.66
2023-04-17T15:24:03.709Z,102152.31
2023-04-17T15:26:33.287Z,102143.47
2023-04-17T15:29:00.982Z,102152.41
2023-04-17T15:31:28.216Z,102139.25
2023-04-17T15:33:55.253Z,102145.66
2023-04-17T15:36:22.148Z,102140.09
2023-04-17T15:38:49.108Z,102132.91
2023-04-17T15:41:16.084Z,102148.41
2023-04-17T15:43:43.256Z,102135.84
2023-04-17T15:46:10.747Z,102148.06
2023-04-17T15:48:40.721Z,102149.75
2023-04-17T15:51:08.216Z,102145.69
2023-04-17T15:53:35.692Z,102151.31
2023-04-17T15:56:02.958Z,102143.06
2023-04-17T15:58:29.995Z,102154.03
2023-04-17T16:00:56.977Z,102142.50
2023-04-17T16:03:24.427Z,102157.78
2023-04-17T16:05:53.949Z,102157.38
2023-04-17T16:08:21.258Z,102150.81
2023-04-17T16:10:48.197Z,102152.06
2023-04-17T16:13:16.431Z,102156.22
2023-04-17T16:15:43.565Z,102154.16
2023-04-17T16:18:11.677Z,102147.59
2023-04-17T16:20:39.302Z,102144.72
2023-04-17T16:23:06.864Z,102137.72
2023-04-17T16:25:34.009Z,102151.53
2023-04-17T16:28:00.905Z,102147.00
2023-04-17T16:30:28.100Z,102145.78
2023-04-17T16:32:55.502Z,102153.66
2023-04-17T16:35:23.000Z,102146.22
2023-04-17T16:37:49.932Z,102157.78
2023-04-17T16:40:17.896Z,102164.34
2023-04-17T16:42:45.360Z,102163.94
2023-04-17T16:45:12.737Z,102161.91
2023-04-17T16:47:39.846Z,102158.19
2023-04-17T16:50:09.848Z,102164.34
2023-04-17T16:52:40.732Z,102167.47
2023-04-17T16:55:08.755Z,102165.41
2023-04-17T16:57:38.137Z,102166.44
2023-04-17T17:00:08.303Z,102152.00
2023-04-17T17:02:36.861Z,102174.06
2023-04-17T17:05:04.929Z,102160.88
2023-04-17T17:07:32.134Z,102161.28
2023-04-17T17:09:59.132Z,102155.31
2023-04-17T17:12:26.377Z,102163.16
2023-04-17T17:14:53.885Z,102168.72
2023-04-17T17:17:21.228Z,102170.38
2023-04-17T17:19:48.326Z,102170.16
2023-04-17T17:22:15.623Z,102164.38
2023-04-17T17:24:42.770Z,102180.47
2023-04-17T17:27:10.167Z,102167.47
2023-04-17T17:29:37.150Z,102175.53
2023-04-17T17:32:04.706Z,102182.72
2023-04-17T17:34:32.585Z,102179.44
2023-04-17T17:36:59.891Z,102182.53
2023-04-17T17:39:27.003Z,102177.16
2023-04-17T17:41:55.805Z,102176.56
2023-04-17T17:44:22.938Z,102189.53
2023-04-17T17:46:50.186Z,102188.09
2023-04-17T17:49:17.501Z,102184.16
2023-04-17T17:51:44.728Z,102180.25
2023-04-17T17:54:12.379Z,102181.28
2023-04-17T17:56:40.329Z,102191.38
2023-04-17T17:59:07.794Z,102185.41
2023-04-17T18:01:36.377Z,102190.16
2023-04-17T18:04:03.763Z,102195.50
2023-04-17T18:06:31.701Z,102186.03
2023-04-17T18:08:59.176Z,102190.75
2023-04-17T18:11:27.400Z,102183.97
2023-04-17T18:13:54.821Z,102200.03
2023-04-17T18:16:22.664Z,102187.88
2023-04-17T18:18:49.838Z,102196.53
2023-04-17T18:21:18.649Z,102187.03
2023-04-17T18:23:45.690Z,102185.41
2023-04-17T18:26:13.027Z,102187.66
2023-04-17T18:28:40.133Z,102191.34
2023-04-17T18:31:07.519Z,102197.94
2023-04-17T18:33:34.499Z,102200.00
2023-04-17T18:36:01.596Z,102199.38
2023-04-17T18:38:28.619Z,102208.03
2023-04-17T18:40:57.443Z,102207.22
2023-04-17T18:43:26.568Z,102201.44
2023-04-17T18:45:54.103Z,102207.63
2023-04-17T18:48:21.684Z,102212.16
2023-04-17T18:50:49.037Z,102206.59
2023-04-17T18:53:16.183Z,102223.88
2023-04-17T18:55:43.255Z,102222.84
2023-04-17T18:58:10.612Z,102222.22
2023-04-17T19:00:37.899Z,102218.75
2023-04-17T19:03:05.252Z,102224.28
2023-04-17T19:05:32.476Z,102226.31
2023-04-17T19:07:59.806Z,102223.84
2023-04-17T19:10:26.767Z,102223.47
2023-04-17T19:12:53.972Z,102222.19
2023-04-17T19:15:21.422Z,102217.66
2023-04-17T19:17:48.925Z,102227.53
2023-04-17T19:20:16.686Z,102219.09
2023-04-17T19:22:44.047Z,102223.41
2023-04-17T19:25:11.289Z,102214.75
2023-04-17T19:27:38.251Z,102215.16
2023-04-17T19:30:08.888Z,102219.50
2023-04-17T19:32:35.981Z,102219.50
2023-04-17T19:35:03.078Z,102223.41
2023-04-17T19:37:30.262Z,102215.78
2023-04-17T19:39:57.241Z,102207.53
2023-04-17T19:42:24.440Z,102208.97
2023-04-17T19:44:51.581Z,102207.53
2023-04-17T19:47:18.656Z,102205.66
2023-04-17T19:49:45.924Z,102210.19
2023-04-17T19:52:13.725Z,102215.75
2023-04-17T19:54:42.735Z,102209.78
2023-04-17T19:57:09.891Z,102207.31
2023-04-17T19:59:37.125Z,102210.41
2023-04-17T20:02:04.280Z,102208.75
2023-04-17T20:04:31.664Z,102206.28
2023-04-17T20:06:58.896Z,102213.47
2023-04-17T20:09:26.054Z,102207.91
2023-04-17T20:11:53.021Z,102205.84
2023-04-17T20:14:20.831Z,102207.91
2023-04-17T20:16:50.296Z,102208.31
2023-04-17T20:19:17.410Z,102200.91
2023-04-17T20:21:44.752Z,102204.81
2023-04-17T20:24:12.926Z,102202.97
2023-04-17T20:26:39.940Z,102199.25
2023-04-17T20:29:07.174Z,102188.53
2023-04-17T20:31:36.403Z,102198.22
2023-04-17T20:34:03.807Z,102206.88
2023-04-17T20:36:31.392Z,102199.88
2023-04-17T20:38:58.261Z,102200.69
2023-04-17T20:41:25.198Z,102207.31
2023-04-17T20:43:59.828Z,102199.47
2023-04-17T20:46:27.918Z,102193.06
2023-04-17T20:48:55.001Z,102191.63
2023-04-17T20:51:25.090Z,102193.69
2023-04-17T20:53:53.441Z,102199.88
2023-04-17T20:56:21.873Z,102201.91
2023-04-17T20:58:49.065Z,102202.13
2023-04-17T21:01:16.697Z,102196.31
2023-04-17T21:03:44.102Z,102200.63
2023-04-17T21:06:11.800Z,102203.78
2023-04-17T21:08:38.946Z,102206.44
2023-04-17T21:11:05.943Z,102212.00
2023-04-17T21:13:33.229Z,102201.28
2023-04-17T21:16:00.642Z,102216.13
2023-04-17T21:18:27.600Z,102210.34
2023-04-17T21:20:54.572Z,102206.84
2023-04-17T21:23:21.778Z,102227.22
2023-04-17T21:25:51.874Z,102207.63
2023-04-17T21:28:19.328Z,102219.78
2023-04-17T21:30:47.194Z,102226.97
2023-04-17T21:33:14.543Z,102232.75
2023-04-17T21:35:44.967Z,102229.25
2023-04-17T21:38:12.853Z,102218.72
2023-04-17T21:40:50.531Z,102225.91
2023-04-17T21:43:18.331Z,102229.63
2023-04-17T21:45:45.827Z,102230.84
2023-04-17T21:48:15.182Z,102236.59
2023-04-17T21:50:43.233Z,102238.66
2023-04-17T21:53:10.654Z,102232.25
2023-04-17T21:55:38.514Z,102243.34
2023-04-17T21:58:05.604Z,102241.44
2023-04-17T22:00:32.660Z,102238.34
2023-04-17T22:03:00.691Z,102237.03
2023-04-17T22:05:28.167Z,102238.44
2023-04-17T22:07:55.773Z,102247.22
2023-04-17T22:10:24.181Z,102250.88
2023-04-17T22:12:51.516Z,102240.78
2023-04-17T22:15:18.871Z,102247.91
2023-04-17T22:17:46.306Z,102247.25
2023-04-17T22:20:13.472Z,102252.53
2023-04-17T22:22:40.551Z,102247.34
2023-04-17T22:25:08.242Z,102257.78
2023-04-17T22:27:35.367Z,102263.50
2023-04-17T22:30:02.346Z,102263.00
2023-04-17T22:32:29.465Z,102251.25
2023-04-17T22:34:56.427Z,102262.75
2023-04-17T22:37:23.358Z,102259.81
2023-04-17T22:39:50.343Z,102261.22
2023-04-17T22:42:17.554Z,102258.47
2023-04-17T22:44:44.653Z,102265.66
2023-04-17T22:47:11.631Z,102277.72
2023-04-17T22:49:38.654Z,102271.09
2023-04-17T22:52:06.872Z,102271.47
2023-04-17T22:54:34.548Z,102284.44
2023-04-17T22:57:04.957Z,102274.34
2023-04-17T22:59:32.123Z,102277.84
2023-04-17T23:01:59.127Z,102272.88
2023-04-17T23:04:26.241Z,102281.53
2023-04-17T23:06:53.584Z,102273.91
2023-04-17T23:09:20.763Z,102282.09
2023-04-17T23:11:47.907Z,102268.25
2023-04-17T23:14:15.132Z,102277.47
2023-04-17T23:16:42.578Z,102280.34
2023-04-17T23:19:09.665Z,102277.41
2023-04-17T23:21:36.688Z,102280.19
2023-04-17T23:24:03.839Z,102270.34
2023-04-17T23:26:30.891Z,102275.59
2023-04-17T23:28:58.030Z,102275.53
2023-04-17T23:31:25.121Z,102277.56
2023-04-17T23:33:52.203Z,102273.41
2023-04-17T23:36:19.266Z,102280.78
2023-04-17T23:38:46.369Z,102280.50
2023-04-17T23:41:13.553Z,102293.00
2023-04-17T23:43:40.805Z,102276.28
2023-04-17T23:46:09.333Z,102289.44
2023-04-17T23:48:36.492Z,102287.50
2023-04-17T23:51:03.874Z,102286.22
2023-04-17T23:53:30.794Z,102281.25
2023-04-17T23:55:57.986Z,102288.13
2023-04-17T23:58:25.063Z,102291.16
